DNO773 LGAV-LGIO
Flight info
| Callsign | DNO773 |
|---|---|
| Flight time | 0h 37m |
| Altitude | 24000 |
| Route | KOR L53 GARTA L611 IBTIN |
| Aircraft | A319/M-SDE2E3FGHIRWXY/LB1 |
Departure
| Time | 2026-05-06 16:52 |
|---|---|
| Airport | Athens Eleftherios Venizelos International Airport (LGAV) |
Arrival
| Time | 2026-05-06 17:29 |
|---|---|
| Airport | Ioannina King Pyrrhus National Airport (LGIO) |
| Time | Latitude | Longitude | Altitude | Speed | Heading |
|---|---|---|---|---|---|
| 2026-05-06 16:09 | 37.94161 | 23.95296 | 300 ft | 0 kts | 218° |
| 2026-05-06 16:36 | 37.94174 | 23.95307 | 300 ft | 4 kts | 190° |
| 2026-05-06 16:36 | 37.94199 | 23.95307 | 300 ft | 4 kts | 177° |
| 2026-05-06 16:37 | 37.94223 | 23.95303 | 301 ft | 4 kts | 161° |
| 2026-05-06 16:37 | 37.94246 | 23.95293 | 300 ft | 4 kts | 161° |
| 2026-05-06 16:37 | 37.94269 | 23.95283 | 300 ft | 4 kts | 161° |
| 2026-05-06 16:37 | 37.94293 | 23.95277 | 301 ft | 4 kts | 180° |
| 2026-05-06 16:38 | 37.94317 | 23.95274 | 299 ft | 4 kts | 156° |
| 2026-05-06 16:38 | 37.94329 | 23.95265 | 302 ft | 0 kts | 126° |
| 2026-05-06 16:38 | 37.94328 | 23.95267 | 300 ft | 0 kts | 126° |
| 2026-05-06 16:38 | 37.94327 | 23.95269 | 301 ft | 0 kts | 126° |
| 2026-05-06 16:39 | 37.94324 | 23.95274 | 300 ft | 1 kts | 126° |
| 2026-05-06 16:39 | 37.94321 | 23.95279 | 300 ft | 1 kts | 126° |
| 2026-05-06 16:39 | 37.94317 | 23.95287 | 301 ft | 1 kts | 120° |
| 2026-05-06 16:41 | 37.94314 | 23.95292 | 300 ft | 5 kts | 121° |
| 2026-05-06 16:41 | 37.94280 | 23.95356 | 301 ft | 10 kts | 127° |
| 2026-05-06 16:41 | 37.94237 | 23.95427 | 300 ft | 10 kts | 128° |
| 2026-05-06 16:41 | 37.94195 | 23.95495 | 299 ft | 10 kts | 136° |
| 2026-05-06 16:42 | 37.94141 | 23.95545 | 299 ft | 10 kts | 134° |
| 2026-05-06 16:42 | 37.94102 | 23.95604 | 299 ft | 0 kts | 126° |
| 2026-05-06 16:42 | 37.94102 | 23.95606 | 300 ft | 0 kts | 126° |
| 2026-05-06 16:42 | 37.94100 | 23.95609 | 300 ft | 1 kts | 126° |
| 2026-05-06 16:43 | 37.94086 | 23.95648 | 299 ft | 12 kts | 101° |
| 2026-05-06 16:43 | 37.94134 | 23.95742 | 299 ft | 14 kts | 37° |
| 2026-05-06 16:43 | 37.94209 | 23.95812 | 299 ft | 13 kts | 36° |
| 2026-05-06 16:43 | 37.94280 | 23.95880 | 299 ft | 13 kts | 37° |
| 2026-05-06 16:44 | 37.94351 | 23.95946 | 298 ft | 12 kts | 36° |
| 2026-05-06 16:44 | 37.94419 | 23.96011 | 298 ft | 13 kts | 37° |
| 2026-05-06 16:44 | 37.94494 | 23.96082 | 299 ft | 14 kts | 37° |
| 2026-05-06 16:44 | 37.94568 | 23.96152 | 300 ft | 13 kts | 36° |
| 2026-05-06 16:45 | 37.94638 | 23.96218 | 300 ft | 13 kts | 36° |
| 2026-05-06 16:45 | 37.94708 | 23.96285 | 299 ft | 14 kts | 37° |
| 2026-05-06 16:45 | 37.94828 | 23.96399 | 299 ft | 23 kts | 37° |
| 2026-05-06 16:45 | 37.94954 | 23.96519 | 301 ft | 17 kts | 36° |
| 2026-05-06 16:46 | 37.95028 | 23.96589 | 301 ft | 13 kts | 37° |
| 2026-05-06 16:46 | 37.95100 | 23.96656 | 302 ft | 13 kts | 37° |
| 2026-05-06 16:46 | 37.95170 | 23.96722 | 303 ft | 12 kts | 37° |
| 2026-05-06 16:46 | 37.95238 | 23.96787 | 302 ft | 12 kts | 37° |
| 2026-05-06 16:47 | 37.95305 | 23.96850 | 304 ft | 12 kts | 37° |
| 2026-05-06 16:47 | 37.95368 | 23.96912 | 302 ft | 11 kts | 45° |
| 2026-05-06 16:47 | 37.95374 | 23.97000 | 304 ft | 9 kts | 128° |
| 2026-05-06 16:47 | 37.95373 | 23.97001 | 304 ft | 0 kts | 133° |
| 2026-05-06 16:48 | 37.95343 | 23.97019 | 306 ft | 6 kts | 164° |
| 2026-05-06 16:48 | 37.95336 | 23.97022 | 306 ft | 0 kts | 164° |
| 2026-05-06 16:49 | 37.95325 | 23.97025 | 306 ft | 6 kts | 168° |
| 2026-05-06 16:50 | 37.95280 | 23.97035 | 309 ft | 7 kts | 172° |
| 2026-05-06 16:50 | 37.95234 | 23.97039 | 309 ft | 6 kts | 183° |
| 2026-05-06 16:50 | 37.95196 | 23.97025 | 309 ft | 0 kts | 206° |
| 2026-05-06 16:50 | 37.95182 | 23.97013 | 309 ft | 0 kts | 218° |
| 2026-05-06 16:51 | 37.95180 | 23.97010 | 309 ft | 1 kts | 218° |
| 2026-05-06 16:51 | 37.95177 | 23.97007 | 309 ft | 1 kts | 218° |
| 2026-05-06 16:51 | 37.94970 | 23.96813 | 308 ft | 88 kts | 217° |
| 2026-05-06 16:51 | 37.94237 | 23.96108 | 418 ft | 165 kts | 217° |
| 2026-05-06 16:52 | 37.93268 | 23.95142 | 1403 ft | 184 kts | 216° |
| 2026-05-06 16:52 | 37.92181 | 23.94484 | 2914 ft | 166 kts | 187° |
| 2026-05-06 16:52 | 37.91023 | 23.94906 | 3498 ft | 206 kts | 140° |
| 2026-05-06 16:52 | 37.90187 | 23.96705 | 3391 ft | 241 kts | 121° |
| 2026-05-06 16:53 | 37.89129 | 23.98248 | 4516 ft | 234 kts | 150° |
| 2026-05-06 16:53 | 37.87535 | 23.98722 | 5008 ft | 245 kts | 189° |
| 2026-05-06 16:53 | 37.86022 | 23.97785 | 5659 ft | 249 kts | 228° |
| 2026-05-06 16:53 | 37.85187 | 23.95892 | 6410 ft | 255 kts | 251° |
| 2026-05-06 16:54 | 37.84627 | 23.93766 | 7474 ft | 254 kts | 253° |
| 2026-05-06 16:54 | 37.84030 | 23.91634 | 8450 ft | 261 kts | 246° |
| 2026-05-06 16:54 | 37.83097 | 23.89635 | 9426 ft | 267 kts | 234° |
| 2026-05-06 16:54 | 37.81913 | 23.87782 | 10238 ft | 278 kts | 241° |
| 2026-05-06 16:55 | 37.81374 | 23.85354 | 10559 ft | 302 kts | 272° |
| 2026-05-06 16:55 | 37.81698 | 23.82614 | 10813 ft | 329 kts | 283° |
| 2026-05-06 16:55 | 37.82226 | 23.79688 | 11196 ft | 350 kts | 284° |
| 2026-05-06 16:55 | 37.82766 | 23.76648 | 11944 ft | 357 kts | 283° |
| 2026-05-06 16:56 | 37.83269 | 23.73555 | 12887 ft | 360 kts | 282° |
| 2026-05-06 16:56 | 37.83733 | 23.70431 | 13801 ft | 363 kts | 282° |
| 2026-05-06 16:56 | 37.84168 | 23.67262 | 14577 ft | 367 kts | 281° |
| 2026-05-06 16:56 | 37.84584 | 23.64067 | 15397 ft | 370 kts | 281° |
| 2026-05-06 16:57 | 37.84983 | 23.60890 | 16222 ft | 372 kts | 281° |
| 2026-05-06 16:57 | 37.85383 | 23.57642 | 17002 ft | 375 kts | 281° |
| 2026-05-06 16:57 | 37.85783 | 23.54372 | 17776 ft | 378 kts | 281° |
| 2026-05-06 16:57 | 37.86183 | 23.51068 | 18505 ft | 381 kts | 281° |
| 2026-05-06 16:58 | 37.86586 | 23.47739 | 19146 ft | 384 kts | 281° |
| 2026-05-06 16:58 | 37.86992 | 23.44377 | 19793 ft | 388 kts | 281° |
| 2026-05-06 16:58 | 37.87400 | 23.40987 | 20409 ft | 391 kts | 281° |
| 2026-05-06 16:58 | 37.87812 | 23.37558 | 20997 ft | 395 kts | 281° |
| 2026-05-06 16:59 | 37.88227 | 23.34095 | 21590 ft | 399 kts | 281° |
| 2026-05-06 16:59 | 37.88643 | 23.30609 | 22177 ft | 402 kts | 281° |
| 2026-05-06 16:59 | 37.89063 | 23.27085 | 22755 ft | 406 kts | 281° |
| 2026-05-06 16:59 | 37.89485 | 23.23536 | 23317 ft | 409 kts | 281° |
| 2026-05-06 17:00 | 37.89905 | 23.19998 | 23792 ft | 413 kts | 281° |
| 2026-05-06 17:00 | 37.90333 | 23.16385 | 24032 ft | 417 kts | 281° |
| 2026-05-06 17:00 | 37.90764 | 23.12728 | 24058 ft | 422 kts | 281° |
| 2026-05-06 17:00 | 37.91201 | 23.09015 | 24063 ft | 432 kts | 280° |
| 2026-05-06 17:01 | 37.91648 | 23.05208 | 24071 ft | 440 kts | 280° |
| 2026-05-06 17:01 | 37.92101 | 23.01339 | 24068 ft | 448 kts | 280° |
| 2026-05-06 17:01 | 37.92620 | 22.97421 | 24062 ft | 453 kts | 285° |
| 2026-05-06 17:01 | 37.93582 | 22.93602 | 24067 ft | 455 kts | 293° |
| 2026-05-06 17:02 | 37.94942 | 22.89991 | 24060 ft | 453 kts | 301° |
| 2026-05-06 17:02 | 37.96686 | 22.86690 | 24068 ft | 451 kts | 306° |
| 2026-05-06 17:02 | 37.98523 | 22.83458 | 24051 ft | 450 kts | 306° |
| 2026-05-06 17:02 | 38.00321 | 22.80275 | 24049 ft | 450 kts | 306° |
| 2026-05-06 17:03 | 38.02148 | 22.76999 | 24046 ft | 449 kts | 305° |
| 2026-05-06 17:03 | 38.03917 | 22.73791 | 24063 ft | 449 kts | 305° |
| 2026-05-06 17:03 | 38.05702 | 22.70537 | 24071 ft | 449 kts | 305° |
| 2026-05-06 17:03 | 38.07485 | 22.67282 | 24068 ft | 450 kts | 305° |
| 2026-05-06 17:04 | 38.09274 | 22.64017 | 24064 ft | 450 kts | 305° |
| 2026-05-06 17:04 | 38.11059 | 22.60758 | 24068 ft | 450 kts | 305° |
| 2026-05-06 17:04 | 38.12859 | 22.57470 | 24069 ft | 451 kts | 305° |
| 2026-05-06 17:04 | 38.14647 | 22.54198 | 24067 ft | 451 kts | 305° |
| 2026-05-06 17:05 | 38.16441 | 22.50913 | 24068 ft | 452 kts | 305° |
| 2026-05-06 17:05 | 38.18210 | 22.47670 | 24065 ft | 452 kts | 305° |
| 2026-05-06 17:05 | 38.20001 | 22.44385 | 24062 ft | 452 kts | 304° |
| 2026-05-06 17:05 | 38.21794 | 22.41091 | 24065 ft | 453 kts | 304° |
| 2026-05-06 17:06 | 38.23588 | 22.37792 | 24073 ft | 453 kts | 304° |
| 2026-05-06 17:06 | 38.25380 | 22.34493 | 24074 ft | 453 kts | 304° |
| 2026-05-06 17:06 | 38.27170 | 22.31195 | 24077 ft | 453 kts | 304° |
| 2026-05-06 17:06 | 38.28355 | 22.29011 | 24075 ft | 453 kts | 304° |
| 2026-05-06 17:07 | 38.30148 | 22.25701 | 24084 ft | 453 kts | 304° |
| 2026-05-06 17:07 | 38.31938 | 22.22396 | 24084 ft | 453 kts | 304° |
| 2026-05-06 17:07 | 38.33725 | 22.19093 | 24086 ft | 453 kts | 304° |
| 2026-05-06 17:07 | 38.35513 | 22.15787 | 24078 ft | 452 kts | 304° |
| 2026-05-06 17:08 | 38.37297 | 22.12487 | 24079 ft | 452 kts | 304° |
| 2026-05-06 17:08 | 38.39078 | 22.09186 | 24084 ft | 452 kts | 304° |
| 2026-05-06 17:08 | 38.40861 | 22.05879 | 24082 ft | 452 kts | 304° |
| 2026-05-06 17:08 | 38.42642 | 22.02571 | 24084 ft | 452 kts | 304° |
| 2026-05-06 17:09 | 38.44421 | 21.99264 | 24088 ft | 452 kts | 304° |
| 2026-05-06 17:09 | 38.46201 | 21.95951 | 24072 ft | 452 kts | 304° |
| 2026-05-06 17:09 | 38.47976 | 21.92646 | 24091 ft | 451 kts | 304° |
| 2026-05-06 17:09 | 38.49749 | 21.89339 | 24086 ft | 451 kts | 304° |
| 2026-05-06 17:10 | 38.51505 | 21.86064 | 24085 ft | 451 kts | 304° |
| 2026-05-06 17:10 | 38.53273 | 21.82759 | 24098 ft | 450 kts | 304° |
| 2026-05-06 17:10 | 38.55040 | 21.79449 | 24088 ft | 450 kts | 304° |
| 2026-05-06 17:10 | 38.56805 | 21.76136 | 24091 ft | 451 kts | 303° |
| 2026-05-06 17:11 | 38.58575 | 21.72811 | 24089 ft | 452 kts | 303° |
| 2026-05-06 17:11 | 38.60317 | 21.69534 | 24073 ft | 437 kts | 303° |
| 2026-05-06 17:11 | 38.61999 | 21.66369 | 24076 ft | 424 kts | 303° |
| 2026-05-06 17:11 | 38.63646 | 21.63265 | 24089 ft | 420 kts | 303° |
| 2026-05-06 17:12 | 38.65288 | 21.60168 | 24086 ft | 421 kts | 303° |
| 2026-05-06 17:12 | 38.66933 | 21.57062 | 24098 ft | 422 kts | 303° |
| 2026-05-06 17:12 | 38.68579 | 21.53952 | 24097 ft | 423 kts | 303° |
| 2026-05-06 17:12 | 38.70207 | 21.50873 | 24090 ft | 424 kts | 303° |
| 2026-05-06 17:13 | 38.71860 | 21.47744 | 24086 ft | 424 kts | 303° |
| 2026-05-06 17:13 | 38.73509 | 21.44616 | 24094 ft | 423 kts | 303° |
| 2026-05-06 17:13 | 38.75160 | 21.41480 | 24088 ft | 423 kts | 303° |
| 2026-05-06 17:13 | 38.76809 | 21.38343 | 24090 ft | 422 kts | 303° |
| 2026-05-06 17:14 | 38.78430 | 21.35258 | 23881 ft | 414 kts | 303° |
| 2026-05-06 17:14 | 38.80022 | 21.32225 | 23348 ft | 406 kts | 303° |
| 2026-05-06 17:14 | 38.81589 | 21.29235 | 22763 ft | 400 kts | 303° |
| 2026-05-06 17:14 | 38.83129 | 21.26296 | 22185 ft | 394 kts | 303° |
| 2026-05-06 17:15 | 38.84628 | 21.23431 | 21584 ft | 390 kts | 303° |
| 2026-05-06 17:15 | 38.86130 | 21.20558 | 20983 ft | 386 kts | 303° |
| 2026-05-06 17:15 | 38.87618 | 21.17711 | 20397 ft | 382 kts | 303° |
| 2026-05-06 17:15 | 38.89090 | 21.14889 | 19810 ft | 379 kts | 304° |
| 2026-05-06 17:16 | 38.90552 | 21.12085 | 19231 ft | 376 kts | 303° |
| 2026-05-06 17:16 | 38.92005 | 21.09296 | 18584 ft | 376 kts | 303° |
| 2026-05-06 17:16 | 38.93464 | 21.06496 | 17787 ft | 378 kts | 303° |
| 2026-05-06 17:16 | 38.94911 | 21.03715 | 17090 ft | 369 kts | 303° |
| 2026-05-06 17:17 | 38.96323 | 21.01000 | 16145 ft | 363 kts | 303° |
| 2026-05-06 17:17 | 38.97937 | 20.98526 | 15297 ft | 362 kts | 320° |
| 2026-05-06 17:17 | 39.00051 | 20.96806 | 14745 ft | 361 kts | 333° |
| 2026-05-06 17:17 | 39.02448 | 20.95856 | 14219 ft | 361 kts | 348° |
| 2026-05-06 17:18 | 39.04918 | 20.95345 | 13611 ft | 360 kts | 349° |
| 2026-05-06 17:18 | 39.07387 | 20.94891 | 13018 ft | 357 kts | 350° |
| 2026-05-06 17:18 | 39.09837 | 20.94442 | 12462 ft | 354 kts | 349° |
| 2026-05-06 17:18 | 39.12233 | 20.93989 | 11910 ft | 351 kts | 349° |
| 2026-05-06 17:19 | 39.14633 | 20.93521 | 11376 ft | 347 kts | 349° |
| 2026-05-06 17:19 | 39.17012 | 20.93047 | 10942 ft | 342 kts | 349° |
| 2026-05-06 17:19 | 39.19325 | 20.92582 | 10694 ft | 331 kts | 348° |
| 2026-05-06 17:19 | 39.21555 | 20.92131 | 10543 ft | 319 kts | 348° |
| 2026-05-06 17:20 | 39.23705 | 20.91694 | 10392 ft | 307 kts | 348° |
| 2026-05-06 17:20 | 39.25781 | 20.91271 | 10253 ft | 297 kts | 348° |
| 2026-05-06 17:20 | 39.27789 | 20.90862 | 10117 ft | 286 kts | 348° |
| 2026-05-06 17:20 | 39.29722 | 20.90469 | 10001 ft | 277 kts | 348° |
| 2026-05-06 17:21 | 39.31618 | 20.90082 | 9684 ft | 275 kts | 348° |
| 2026-05-06 17:21 | 39.33505 | 20.89686 | 9389 ft | 274 kts | 348° |
| 2026-05-06 17:21 | 39.35381 | 20.89284 | 9082 ft | 273 kts | 348° |
| 2026-05-06 17:21 | 39.37228 | 20.88888 | 8784 ft | 272 kts | 348° |
| 2026-05-06 17:22 | 39.39095 | 20.88488 | 8482 ft | 272 kts | 348° |
| 2026-05-06 17:22 | 39.40957 | 20.88090 | 8175 ft | 271 kts | 348° |
| 2026-05-06 17:22 | 39.42807 | 20.87696 | 7969 ft | 264 kts | 349° |
| 2026-05-06 17:22 | 39.44604 | 20.87447 | 7854 ft | 259 kts | 4° |
| 2026-05-06 17:23 | 39.46248 | 20.88296 | 7736 ft | 256 kts | 37° |
| 2026-05-06 17:23 | 39.47373 | 20.90041 | 7638 ft | 251 kts | 62° |
| 2026-05-06 17:23 | 39.48031 | 20.92112 | 7434 ft | 250 kts | 69° |
| 2026-05-06 17:23 | 39.48635 | 20.94253 | 7083 ft | 254 kts | 66° |
| 2026-05-06 17:24 | 39.49406 | 20.96312 | 6745 ft | 255 kts | 52° |
| 2026-05-06 17:24 | 39.50795 | 20.97661 | 6409 ft | 252 kts | 15° |
| 2026-05-06 17:24 | 39.52501 | 20.97686 | 6076 ft | 246 kts | 343° |
| 2026-05-06 17:24 | 39.54079 | 20.96895 | 5655 ft | 244 kts | 332° |
| 2026-05-06 17:25 | 39.55552 | 20.95845 | 5335 ft | 239 kts | 328° |
| 2026-05-06 17:25 | 39.56888 | 20.94669 | 5007 ft | 225 kts | 322° |
| 2026-05-06 17:25 | 39.58077 | 20.93499 | 4734 ft | 209 kts | 322° |
| 2026-05-06 17:25 | 39.59202 | 20.92403 | 4425 ft | 195 kts | 322° |
| 2026-05-06 17:26 | 39.60259 | 20.91382 | 4181 ft | 182 kts | 322° |
| 2026-05-06 17:26 | 39.61250 | 20.90425 | 3936 ft | 174 kts | 322° |
| 2026-05-06 17:26 | 39.62197 | 20.89510 | 3712 ft | 166 kts | 321° |
| 2026-05-06 17:26 | 39.63115 | 20.88623 | 3436 ft | 161 kts | 322° |
| 2026-05-06 17:27 | 39.64021 | 20.87817 | 3155 ft | 152 kts | 328° |
| 2026-05-06 17:27 | 39.64904 | 20.87141 | 2800 ft | 143 kts | 323° |
| 2026-05-06 17:27 | 39.65691 | 20.86356 | 2535 ft | 141 kts | 319° |
| 2026-05-06 17:27 | 39.66446 | 20.85567 | 2279 ft | 140 kts | 319° |
| 2026-05-06 17:28 | 39.67194 | 20.84789 | 2045 ft | 138 kts | 318° |
| 2026-05-06 17:28 | 39.67966 | 20.83995 | 1845 ft | 140 kts | 317° |
| 2026-05-06 17:28 | 39.68719 | 20.83218 | 1673 ft | 143 kts | 320° |
| 2026-05-06 17:28 | 39.69506 | 20.82423 | 1571 ft | 138 kts | 319° |
| 2026-05-06 17:29 | 39.70161 | 20.81749 | 1554 ft | 68 kts | 321° |
| 2026-05-06 17:29 | 39.70256 | 20.81653 | 1553 ft | 1 kts | 15° |
| 2026-05-06 17:29 | 39.70255 | 20.81663 | 1553 ft | 2 kts | 104° |
| 2026-05-06 17:29 | 39.70214 | 20.81708 | 1553 ft | 13 kts | 145° |
| 2026-05-06 17:30 | 39.70139 | 20.81779 | 1554 ft | 13 kts | 142° |
| 2026-05-06 17:30 | 39.70069 | 20.81847 | 1556 ft | 12 kts | 143° |
| 2026-05-06 17:30 | 39.70003 | 20.81913 | 1557 ft | 12 kts | 142° |
| 2026-05-06 17:30 | 39.69929 | 20.81950 | 1558 ft | 11 kts | 184° |
| 2026-05-06 17:31 | 39.69903 | 20.81940 | 1558 ft | 8 kts | 206° |
| 2026-05-06 17:31 | 39.69834 | 20.81875 | 1557 ft | 14 kts | 195° |
| 2026-05-06 17:31 | 39.69748 | 20.81909 | 1557 ft | 13 kts | 142° |
| 2026-05-06 17:31 | 39.69680 | 20.81981 | 1557 ft | 12 kts | 141° |
| 2026-05-06 17:32 | 39.69618 | 20.82045 | 1558 ft | 11 kts | 141° |
| 2026-05-06 17:32 | 39.69557 | 20.82107 | 1558 ft | 11 kts | 140° |
| 2026-05-06 17:32 | 39.69493 | 20.82132 | 1558 ft | 10 kts | 186° |
| 2026-05-06 17:32 | 39.69458 | 20.82102 | 1558 ft | 3 kts | 250° |
| 2026-05-06 17:33 | 39.69455 | 20.82076 | 1558 ft | 0 kts | 243° |